createdAt,value
2022-08-11T00:00:14.455Z,9.60
2022-08-11T00:03:11.286Z,10.80
2022-08-11T00:05:55.600Z,9.40
2022-08-11T00:08:29.116Z,10.60
2022-08-11T00:11:06.496Z,9.00
2022-08-11T00:13:45.692Z,11.10
2022-08-11T00:16:19.388Z,12.90
2022-08-11T00:18:54.762Z,11.20
2022-08-11T00:22:02.450Z,15.20
2022-08-11T00:24:23.024Z,11.20
2022-08-11T00:26:55.981Z,15.50
2022-08-11T00:29:25.344Z,14.60
2022-08-11T00:31:58.634Z,11.90
2022-08-11T00:34:32.442Z,13.50
2022-08-11T00:37:12.426Z,13.80
2022-08-11T00:39:49.733Z,17.40
2022-08-11T00:43:07.816Z,14.10
2022-08-11T00:46:05.914Z,14.50
2022-08-11T00:49:30.699Z,15.40
2022-08-11T00:52:30.508Z,12.60
2022-08-11T00:55:35.499Z,10.50
2022-08-11T00:58:45.226Z,7.40
2022-08-11T01:02:29.170Z,10.80
2022-08-11T01:05:24.583Z,11.20
2022-08-11T01:08:37.289Z,8.40
2022-08-11T01:11:55.880Z,10.10
2022-08-11T01:14:40.659Z,7.60
2022-08-11T01:17:50.188Z,10.60
2022-08-11T01:20:45.213Z,10.10
2022-08-11T01:23:58.782Z,8.80
2022-08-11T01:26:58.506Z,9.60
2022-08-11T01:30:18.160Z,10.40
2022-08-11T01:33:22.767Z,7.90
2022-08-11T01:36:36.186Z,9.20
2022-08-11T01:39:34.337Z,9.10
2022-08-11T01:43:11.906Z,11.00
2022-08-11T01:45:50.915Z,12.70
2022-08-11T01:48:36.754Z,7.80
2022-08-11T01:51:35.530Z,7.70
2022-08-11T01:54:22.080Z,9.60
2022-08-11T01:57:42.692Z,9.70
2022-08-11T02:00:29.162Z,8.30
2022-08-11T02:03:27.575Z,9.00
2022-08-11T02:06:57.712Z,9.00
2022-08-11T02:09:55.724Z,8.30
2022-08-11T02:12:28.170Z,8.60
2022-08-11T02:15:47.223Z,11.10
2022-08-11T02:18:53.395Z,10.70
2022-08-11T02:22:00.875Z,8.00
2022-08-11T02:24:41.784Z,14.40
2022-08-11T02:27:27.516Z,14.60
2022-08-11T02:30:07.710Z,14.70
2022-08-11T02:33:24.961Z,11.10
2022-08-11T02:36:22.972Z,13.70
2022-08-11T02:39:09.996Z,12.50
2022-08-11T02:42:32.817Z,10.70
2022-08-11T02:45:54.928Z,9.00
2022-08-11T02:49:10.059Z,12.00
2022-08-11T02:52:25.431Z,11.50
2022-08-11T02:55:56.134Z,11.50
2022-08-11T02:59:36.574Z,8.90
2022-08-11T03:02:28.043Z,10.40
2022-08-11T03:06:31.889Z,9.50
2022-08-11T03:09:27.580Z,8.90
2022-08-11T03:13:05.682Z,11.50
2022-08-11T03:16:31.511Z,10.00
2022-08-11T03:19:37.243Z,12.60
2022-08-11T03:22:27.116Z,11.30
2022-08-11T03:25:34.890Z,9.90
2022-08-11T03:28:43.583Z,12.40
2022-08-11T03:32:02.141Z,16.60
2022-08-11T03:34:38.075Z,12.20
2022-08-11T03:37:50.579Z,8.90
2022-08-11T03:40:38.064Z,13.30
2022-08-11T03:43:58.234Z,24.70
2022-08-11T03:47:09.773Z,17.00
2022-08-11T03:50:08.833Z,11.10
2022-08-11T03:53:38.323Z,13.70
2022-08-11T03:56:28.740Z,13.10
2022-08-11T03:59:17.686Z,13.00
2022-08-11T04:02:51.192Z,11.50
2022-08-11T04:05:48.989Z,13.50
2022-08-11T04:09:02.041Z,13.40
2022-08-11T04:12:06.298Z,13.10
2022-08-11T04:15:26.881Z,14.60
2022-08-11T04:18:39.385Z,17.40
2022-08-11T04:21:37.318Z,25.40
2022-08-11T04:24:41.420Z,29.30
2022-08-11T04:27:42.704Z,19.20
2022-08-11T04:40:15.917Z,36.10
2022-08-11T04:43:30.663Z,46.80
2022-08-11T04:46:57.669Z,27.70
2022-08-11T04:50:34.379Z,53.70
2022-08-11T05:14:05.825Z,26.20
2022-08-11T05:17:15.719Z,25.50
2022-08-11T05:20:07.465Z,23.10
2022-08-11T05:22:55.885Z,22.30
2022-08-11T05:26:44.689Z,26.80
2022-08-11T05:32:37.747Z,23.20
2022-08-11T05:35:08.479Z,14.00
2022-08-11T05:38:05.997Z,20.30
2022-08-11T05:41:00.225Z,16.90
2022-08-11T05:44:20.811Z,12.20
2022-08-11T05:47:05.384Z,14.00
2022-08-11T05:49:57.869Z,9.70
2022-08-11T05:52:55.435Z,11.40
2022-08-11T05:56:03.346Z,12.10
2022-08-11T05:58:53.032Z,15.80
2022-08-11T06:01:33.427Z,9.20
2022-08-11T06:04:14.264Z,7.20
2022-08-11T06:06:56.199Z,12.60
2022-08-11T06:09:35.073Z,9.90
2022-08-11T06:14:48.222Z,8.70
2022-08-11T06:17:39.242Z,9.00
2022-08-11T06:20:13.424Z,7.70
2022-08-11T06:22:52.785Z,10.70
2022-08-11T06:25:36.668Z,6.30
2022-08-11T06:30:40.819Z,8.40
2022-08-11T06:33:36.428Z,4.60
2022-08-11T06:36:22.273Z,6.40
2022-08-11T06:39:13.578Z,8.70
2022-08-11T06:42:11.230Z,6.20
2022-08-11T06:45:11.654Z,6.60
2022-08-11T06:47:52.393Z,6.80
2022-08-11T06:50:42.430Z,3.50
2022-08-11T06:53:12.511Z,4.30
2022-08-11T06:56:04.457Z,5.50
2022-08-11T06:58:58.834Z,4.80
2022-08-11T07:01:55.470Z,4.60
2022-08-11T07:05:19.595Z,3.20
2022-08-11T07:08:56.624Z,5.60
2022-08-11T07:13:00.609Z,4.90
2022-08-11T07:16:10.892Z,2.70
2022-08-11T07:18:57.271Z,6.40
2022-08-11T07:25:34.178Z,5.30
2022-08-11T07:28:45.391Z,3.90
2022-08-11T07:31:46.627Z,6.40
2022-08-11T07:34:24.226Z,4.60
2022-08-11T07:36:57.846Z,4.50
2022-08-11T07:39:34.146Z,4.90
2022-08-11T07:42:11.980Z,4.30
2022-08-11T07:45:01.967Z,9.30
2022-08-11T07:47:50.184Z,2.90
2022-08-11T07:50:38.509Z,3.60
2022-08-11T07:53:11.314Z,6.70
2022-08-11T07:55:51.001Z,5.90
2022-08-11T07:58:52.432Z,4.50
2022-08-11T08:01:45.390Z,3.00
2022-08-11T08:07:24.748Z,7.20
2022-08-11T08:10:14.165Z,6.10
2022-08-11T08:13:04.181Z,8.00
2022-08-11T08:15:51.855Z,5.50
2022-08-11T08:18:27.569Z,3.00
2022-08-11T08:21:12.381Z,5.30
2022-08-11T08:23:46.927Z,3.00
2022-08-11T08:26:35.488Z,2.90
2022-08-11T08:29:26.328Z,3.50
2022-08-11T08:31:56.788Z,4.50
2022-08-11T08:34:26.304Z,2.60
2022-08-11T08:36:56.646Z,5.50
2022-08-11T08:39:25.751Z,6.60
2022-08-11T08:41:59.596Z,2.70
2022-08-11T08:44:38.983Z,3.40
2022-08-11T08:47:40.970Z,4.10
2022-08-11T08:51:01.794Z,2.80
2022-08-11T08:53:37.070Z,3.50
2022-08-11T08:56:10.176Z,2.80
2022-08-11T08:58:43.549Z,5.40
2022-08-11T09:01:15.384Z,4.50
2022-08-11T09:04:07.047Z,2.30
2022-08-11T09:06:34.677Z,1.50
2022-08-11T09:09:05.141Z,4.00
2022-08-11T09:11:55.665Z,3.40
2022-08-11T09:14:53.158Z,2.90
2022-08-11T09:17:24.842Z,3.40
2022-08-11T09:20:08.435Z,7.00
2022-08-11T09:23:41.342Z,2.60
2022-08-11T09:26:12.001Z,1.70
2022-08-11T09:28:44.658Z,1.90
2022-08-11T09:31:15.438Z,3.00
2022-08-11T09:36:37.538Z,2.10
2022-08-11T09:39:45.842Z,3.70
2022-08-11T09:42:23.013Z,3.40
2022-08-11T09:44:54.137Z,5.40
2022-08-11T09:47:32.294Z,4.00
2022-08-11T09:50:03.750Z,5.00
2022-08-11T09:55:11.334Z,1.90
2022-08-11T09:58:03.885Z,4.20
2022-08-11T10:00:40.495Z,4.00
2022-08-11T10:03:26.554Z,3.40
2022-08-11T10:06:19.653Z,1.80
2022-08-11T10:09:06.360Z,2.10
2022-08-11T10:11:37.728Z,1.70
2022-08-11T10:14:33.076Z,6.30
2022-08-11T10:17:08.807Z,5.90
2022-08-11T10:19:38.798Z,7.80
2022-08-11T10:22:29.100Z,5.50
2022-08-11T10:25:21.840Z,3.90
2022-08-11T10:28:17.104Z,3.90
2022-08-11T10:31:06.939Z,6.10
2022-08-11T10:34:03.342Z,3.40
2022-08-11T10:36:50.355Z,4.70
2022-08-11T10:39:22.559Z,4.70
2022-08-11T10:42:17.223Z,4.90
2022-08-11T10:45:02.259Z,2.50
2022-08-11T10:47:35.020Z,1.90
2022-08-11T10:50:33.314Z,2.30
2022-08-11T10:53:22.144Z,3.10
2022-08-11T10:56:10.080Z,2.20
2022-08-11T10:58:48.041Z,3.80
2022-08-11T11:01:26.308Z,2.20
2022-08-11T11:04:02.252Z,2.70
2022-08-11T11:07:13.961Z,2.10
2022-08-11T11:10:04.112Z,5.20
2022-08-11T11:13:00.698Z,2.80
2022-08-11T11:15:50.641Z,3.00
2022-08-11T11:18:39.910Z,2.60
2022-08-11T11:21:18.876Z,8.70
2022-08-11T11:24:43.780Z,3.10
2022-08-11T11:27:34.878Z,5.80
2022-08-11T11:30:17.471Z,4.50
2022-08-11T11:36:37.495Z,2.60
2022-08-11T11:39:09.118Z,1.60
2022-08-11T11:41:38.972Z,1.50
2022-08-11T11:44:11.850Z,4.10
2022-08-11T11:46:45.625Z,2.50
2022-08-11T11:49:18.702Z,6.70
2022-08-11T11:51:50.074Z,8.60
2022-08-11T11:54:34.028Z,4.10
2022-08-11T11:57:23.376Z,8.00
2022-08-11T12:00:13.192Z,3.20
2022-08-11T12:02:43.651Z,6.30
2022-08-11T12:05:14.849Z,3.00
2022-08-11T12:08:10.515Z,4.60
2022-08-11T12:11:15.612Z,5.40
2022-08-11T12:13:52.120Z,2.80
2022-08-11T12:16:34.294Z,3.60
2022-08-11T12:19:12.027Z,3.50
2022-08-11T12:22:03.493Z,2.80
2022-08-11T12:24:53.806Z,3.30
2022-08-11T12:27:25.884Z,3.20
2022-08-11T12:30:08.669Z,3.10
2022-08-11T12:32:40.762Z,5.00
2022-08-11T12:35:11.653Z,3.00
2022-08-11T12:37:49.677Z,4.60
2022-08-11T12:41:15.615Z,5.70
2022-08-11T12:43:57.177Z,3.30
2022-08-11T12:46:34.817Z,3.10
2022-08-11T12:49:33.454Z,1.90
2022-08-11T12:52:15.609Z,3.40
2022-08-11T12:54:56.513Z,4.50
2022-08-11T12:58:07.098Z,4.10
2022-08-11T13:00:55.044Z,4.40
2022-08-11T13:03:43.740Z,4.80
2022-08-11T13:06:24.935Z,3.10
2022-08-11T13:09:01.121Z,8.40
2022-08-11T13:11:55.871Z,4.60
2022-08-11T13:14:28.196Z,3.60
2022-08-11T13:17:16.467Z,3.10
2022-08-11T13:19:49.810Z,6.50
2022-08-11T13:22:22.148Z,5.50
2022-08-11T13:24:55.471Z,2.70
2022-08-11T13:27:25.412Z,3.30
2022-08-11T13:30:14.740Z,3.30
2022-08-11T13:32:46.571Z,4.00
2022-08-11T13:35:16.770Z,3.50
2022-08-11T13:38:19.058Z,3.60
2022-08-11T13:40:55.291Z,3.70
2022-08-11T13:43:26.285Z,4.10
2022-08-11T13:46:18.775Z,5.60
2022-08-11T13:48:51.537Z,3.20
2022-08-11T13:51:34.183Z,2.90
2022-08-11T13:54:11.106Z,3.40
2022-08-11T13:56:47.115Z,3.80
2022-08-11T13:59:30.125Z,2.70
2022-08-11T14:02:22.096Z,1.70
2022-08-11T14:05:07.184Z,2.30
2022-08-11T14:07:49.858Z,3.60
2022-08-11T14:10:23.130Z,2.60
2022-08-11T14:13:25.548Z,4.70
2022-08-11T14:16:05.113Z,6.80
2022-08-11T14:18:36.156Z,3.40
2022-08-11T14:21:26.533Z,2.40
2022-08-11T14:23:55.946Z,1.70
2022-08-11T14:26:27.196Z,2.40
2022-08-11T14:29:25.508Z,3.30
2022-08-11T14:32:03.687Z,3.50
2022-08-11T14:34:35.120Z,4.50
2022-08-11T14:37:12.312Z,3.40
2022-08-11T14:39:52.775Z,2.40
2022-08-11T14:45:57.903Z,1.10
2022-08-11T14:48:26.850Z,4.60
2022-08-11T14:50:58.899Z,5.60
2022-08-11T14:53:28.129Z,3.10
2022-08-11T14:56:15.863Z,5.10
2022-08-11T14:58:44.936Z,6.70
2022-08-11T15:01:33.094Z,6.60
2022-08-11T15:04:24.266Z,4.90
2022-08-11T15:06:52.154Z,6.20
2022-08-11T15:09:24.305Z,6.00
2022-08-11T15:12:33.286Z,3.40
2022-08-11T15:15:26.461Z,5.20
2022-08-11T15:18:00.163Z,4.70
2022-08-11T15:20:48.934Z,2.50
2022-08-11T15:23:41.195Z,3.70
2022-08-11T15:26:52.602Z,3.70
2022-08-11T15:32:20.653Z,3.00
2022-08-11T15:35:18.538Z,4.30
2022-08-11T15:37:58.816Z,7.50
2022-08-11T15:40:54.190Z,4.90
2022-08-11T15:44:01.256Z,4.30
2022-08-11T15:46:55.403Z,2.10
2022-08-11T15:50:11.154Z,2.60
2022-08-11T15:52:33.014Z,3.90
2022-08-11T15:55:08.536Z,2.70
2022-08-11T15:58:00.817Z,4.40
2022-08-11T16:00:48.721Z,3.20
2022-08-11T16:04:06.479Z,3.50
2022-08-11T16:07:11.698Z,3.90
2022-08-11T16:10:21.809Z,6.20
2022-08-11T16:13:18.499Z,9.90
2022-08-11T16:16:12.864Z,10.80
2022-08-11T16:19:04.469Z,9.40
2022-08-11T16:21:36.667Z,4.80
2022-08-11T16:26:30.474Z,10.30
2022-08-11T16:27:13.018Z,4.30
2022-08-11T16:29:47.998Z,11.10
2022-08-11T16:32:23.536Z,4.00
2022-08-11T16:35:29.505Z,4.10
2022-08-11T16:38:19.196Z,5.90
2022-08-11T16:40:51.124Z,5.90
2022-08-11T16:43:43.159Z,3.20
2022-08-11T16:46:34.767Z,2.40
2022-08-11T16:49:10.984Z,2.10
2022-08-11T16:51:40.042Z,5.50
2022-08-11T16:54:09.056Z,2.30
2022-08-11T16:57:18.568Z,4.00
2022-08-11T16:59:56.083Z,3.10
2022-08-11T17:02:54.116Z,2.70
2022-08-11T17:05:54.199Z,3.40
2022-08-11T17:08:56.955Z,2.30
2022-08-11T17:11:56.844Z,3.10
2022-08-11T17:14:37.047Z,4.90
2022-08-11T17:17:13.978Z,2.90
2022-08-11T17:20:42.225Z,3.90
2022-08-11T17:23:03.429Z,4.20
2022-08-11T17:26:03.895Z,2.90
2022-08-11T17:28:24.551Z,3.90
2022-08-11T17:31:21.716Z,4.80
2022-08-11T17:34:15.828Z,5.40
2022-08-11T17:36:46.116Z,2.50
2022-08-11T17:39:18.686Z,2.00
2022-08-11T17:42:06.406Z,2.70
2022-08-11T17:44:56.484Z,5.00
2022-08-11T17:47:48.614Z,2.80
2022-08-11T17:50:22.507Z,6.40
2022-08-11T17:53:13.201Z,2.80
2022-08-11T17:56:01.401Z,3.10
2022-08-11T17:58:50.640Z,2.70
2022-08-11T18:01:25.524Z,2.80
2022-08-11T18:04:01.800Z,6.20
2022-08-11T18:06:37.809Z,5.00
2022-08-11T18:09:41.522Z,5.80
2022-08-11T18:12:30.604Z,6.10
2022-08-11T18:15:22.455Z,5.40
2022-08-11T18:18:19.145Z,6.80
2022-08-11T18:21:09.905Z,8.70
2022-08-11T18:23:58.561Z,5.50
2022-08-11T18:26:51.708Z,5.90
2022-08-11T18:29:42.493Z,5.70
2022-08-11T18:32:49.194Z,5.70
2022-08-11T18:35:39.707Z,4.00
2022-08-11T18:38:34.886Z,7.20
2022-08-11T18:41:28.706Z,3.60
2022-08-11T18:44:21.826Z,4.80
2022-08-11T18:47:12.462Z,5.80
2022-08-11T18:50:06.076Z,5.20
2022-08-11T18:52:57.831Z,4.00
2022-08-11T18:55:48.385Z,6.40
2022-08-11T18:58:46.219Z,4.50
2022-08-11T19:01:45.927Z,7.80
2022-08-11T19:04:37.888Z,6.40
2022-08-11T19:07:28.213Z,7.10
2022-08-11T19:10:17.973Z,6.40
2022-08-11T19:13:07.455Z,5.00
2022-08-11T19:15:57.322Z,5.20
2022-08-11T19:18:45.647Z,7.40
2022-08-11T19:21:46.030Z,7.20
2022-08-11T19:24:42.337Z,4.60
2022-08-11T19:27:42.166Z,4.10
2022-08-11T19:30:32.860Z,5.00
2022-08-11T19:34:02.922Z,6.20
2022-08-11T19:36:57.518Z,8.70
2022-08-11T19:39:53.563Z,5.60
2022-08-11T19:43:01.287Z,4.10
2022-08-11T19:46:24.659Z,4.70
2022-08-11T19:49:16.778Z,8.20
2022-08-11T19:52:04.995Z,6.40
2022-08-11T19:54:57.747Z,6.70
2022-08-11T19:57:46.860Z,6.70
2022-08-11T20:00:52.153Z,6.00
2022-08-11T20:03:44.770Z,7.20
2022-08-11T20:10:01.244Z,22.90
2022-08-11T20:12:47.014Z,11.90
2022-08-11T20:15:39.780Z,11.10
2022-08-11T20:18:35.744Z,7.60
2022-08-11T20:21:33.418Z,8.80
2022-08-11T20:24:40.583Z,9.90
2022-08-11T20:27:35.891Z,7.80
2022-08-11T20:30:43.890Z,9.40
2022-08-11T20:33:44.046Z,10.60
2022-08-11T20:36:35.061Z,8.60
2022-08-11T20:39:25.750Z,10.10
2022-08-11T20:42:16.408Z,10.90
2022-08-11T20:45:16.709Z,17.70
2022-08-11T20:48:19.721Z,11.80
2022-08-11T20:51:20.892Z,12.40
2022-08-11T20:54:18.008Z,9.00
2022-08-11T20:58:03.973Z,10.10
2022-08-11T21:00:53.042Z,10.10
2022-08-11T21:03:45.234Z,9.60
2022-08-11T21:06:48.499Z,5.40
2022-08-11T21:12:55.584Z,15.20
2022-08-11T21:16:03.134Z,7.70
2022-08-11T21:18:57.730Z,5.40
2022-08-11T21:21:48.353Z,7.10
2022-08-11T21:24:42.852Z,8.00
2022-08-11T21:27:40.193Z,8.50
2022-08-11T21:30:33.845Z,7.50
2022-08-11T21:33:29.379Z,7.30
2022-08-11T21:36:23.320Z,6.00
2022-08-11T21:39:17.233Z,6.60
2022-08-11T21:42:16.223Z,10.40
2022-08-11T21:45:08.762Z,7.90
2022-08-11T21:48:00.981Z,6.90
2022-08-11T21:50:58.540Z,9.40
2022-08-11T21:53:51.240Z,7.00
2022-08-11T21:56:46.478Z,8.90
2022-08-11T21:59:44.355Z,7.20
2022-08-11T22:02:34.190Z,7.10
2022-08-11T22:05:30.756Z,10.50
2022-08-11T22:08:18.552Z,11.50
2022-08-11T22:11:07.535Z,9.50
2022-08-11T22:14:00.744Z,9.40
2022-08-11T22:16:58.117Z,7.70
2022-08-11T22:19:55.470Z,9.20
2022-08-11T22:22:49.079Z,9.10
2022-08-11T22:25:51.217Z,10.50
2022-08-11T22:28:47.076Z,11.10
2022-08-11T22:31:42.657Z,10.40
2022-08-11T22:34:32.012Z,11.80
2022-08-11T22:37:30.817Z,9.70
2022-08-11T22:40:20.031Z,10.70
2022-08-11T22:43:10.053Z,7.80
2022-08-11T22:45:58.455Z,11.90
2022-08-11T22:48:52.282Z,9.00
2022-08-11T22:51:42.057Z,10.40
2022-08-11T22:54:31.759Z,12.50
2022-08-11T22:57:26.673Z,12.80
2022-08-11T23:00:19.292Z,10.20
2022-08-11T23:03:11.649Z,10.10
2022-08-11T23:06:20.940Z,14.00
2022-08-11T23:09:11.820Z,9.70
2022-08-11T23:12:07.207Z,8.90
2022-08-11T23:15:00.378Z,12.80
2022-08-11T23:17:49.327Z,9.00
2022-08-11T23:20:45.408Z,14.50
2022-08-11T23:23:48.742Z,10.30
2022-08-11T23:26:41.289Z,10.20
2022-08-11T23:29:35.494Z,8.70
2022-08-11T23:32:24.065Z,12.60
2022-08-11T23:35:39.997Z,9.50
2022-08-11T23:38:26.525Z,9.30
2022-08-11T23:41:22.098Z,10.20
2022-08-11T23:44:10.998Z,11.60
2022-08-11T23:47:03.067Z,10.50
2022-08-11T23:49:51.385Z,9.60
2022-08-11T23:52:42.768Z,11.80
2022-08-11T23:55:33.049Z,11.10
2022-08-11T23:58:20.720Z,10.50
